sensor_id;sensor_type;location;lat;lon;timestamp;pressure;altitude;pressure_sealevel;temperature;humidity
84947;BME280;75241;51.692;5.196;2024-03-02T00:01:07;99939.84;;;7.89;70.27
84947;BME280;75241;51.692;5.196;2024-03-02T00:03:36;99951.63;;;7.64;71.72
84947;BME280;75241;51.692;5.196;2024-03-02T00:06:02;99942.31;;;7.42;73.30
84947;BME280;75241;51.692;5.196;2024-03-02T00:08:29;99945.91;;;7.24;74.39
84947;BME280;75241;51.692;5.196;2024-03-02T00:10:59;99942.69;;;7.01;76.44
84947;BME280;75241;51.692;5.196;2024-03-02T00:13:24;99939.56;;;6.94;76.82
84947;BME280;75241;51.692;5.196;2024-03-02T00:15:54;99936.44;;;6.87;77.01
84947;BME280;75241;51.692;5.196;2024-03-02T00:18:30;99938.59;;;6.79;77.67
84947;BME280;75241;51.692;5.196;2024-03-02T00:20:56;99939.78;;;6.72;77.91
84947;BME280;75241;51.692;5.196;2024-03-02T00:23:23;99948.63;;;6.69;77.96
84947;BME280;75241;51.692;5.196;2024-03-02T00:25:54;99947.22;;;6.62;78.31
84947;BME280;75241;51.692;5.196;2024-03-02T00:28:36;99951.84;;;6.57;78.95
84947;BME280;75241;51.692;5.196;2024-03-02T00:31:05;99946.63;;;6.57;78.38
84947;BME280;75241;51.692;5.196;2024-03-02T00:33:32;99938.94;;;6.54;78.60
84947;BME280;75241;51.692;5.196;2024-03-02T00:35:58;99940.88;;;6.50;79.16
84947;BME280;75241;51.692;5.196;2024-03-02T00:38:25;99942.06;;;6.43;79.45
84947;BME280;75241;51.692;5.196;2024-03-02T00:40:51;99951.03;;;6.37;80.18
84947;BME280;75241;51.692;5.196;2024-03-02T00:46:04;99958.28;;;6.31;80.62
84947;BME280;75241;51.692;5.196;2024-03-02T00:48:30;99953.09;;;6.31;80.43
84947;BME280;75241;51.692;5.196;2024-03-02T00:50:56;99942.91;;;6.26;80.86
84947;BME280;75241;51.692;5.196;2024-03-02T00:53:23;99946.50;;;6.23;80.60
84947;BME280;75241;51.692;5.196;2024-03-02T00:55:51;99947.56;;;6.19;81.31
84947;BME280;75241;51.692;5.196;2024-03-02T00:58:17;99945.81;;;6.20;81.06
84947;BME280;75241;51.692;5.196;2024-03-02T01:00:42;99942.34;;;6.19;80.92
84947;BME280;75241;51.692;5.196;2024-03-02T01:03:07;99955.50;;;6.16;81.33
84947;BME280;75241;51.692;5.196;2024-03-02T01:05:33;99950.38;;;6.15;81.72
84947;BME280;75241;51.692;5.196;2024-03-02T01:07:59;99943.56;;;6.12;81.75
84947;BME280;75241;51.692;5.196;2024-03-02T01:10:24;99946.09;;;6.14;81.41
84947;BME280;75241;51.692;5.196;2024-03-02T01:12:51;99946.91;;;6.14;81.45
84947;BME280;75241;51.692;5.196;2024-03-02T01:15:17;99945.16;;;6.15;81.45
84947;BME280;75241;51.692;5.196;2024-03-02T01:17:42;99960.03;;;6.12;81.79
84947;BME280;75241;51.692;5.196;2024-03-02T01:20:08;99972.13;;;6.14;81.76
84947;BME280;75241;51.692;5.196;2024-03-02T01:22:34;99966.22;;;6.10;82.06
84947;BME280;75241;51.692;5.196;2024-03-02T01:25:01;99967.97;;;6.09;81.80
84947;BME280;75241;51.692;5.196;2024-03-02T01:27:26;99979.28;;;6.08;82.01
84947;BME280;75241;51.692;5.196;2024-03-02T01:29:52;99980.16;;;6.09;81.76
84947;BME280;75241;51.692;5.196;2024-03-02T01:32:17;99978.38;;;6.09;81.82
84947;BME280;75241;51.692;5.196;2024-03-02T01:34:43;99986.19;;;6.09;81.84
84947;BME280;75241;51.692;5.196;2024-03-02T01:37:08;99984.50;;;6.08;81.90
84947;BME280;75241;51.692;5.196;2024-03-02T01:39:35;99974.03;;;6.10;81.72
84947;BME280;75241;51.692;5.196;2024-03-02T01:42:01;99970.50;;;6.11;81.74
84947;BME280;75241;51.692;5.196;2024-03-02T01:44:26;99986.28;;;6.08;82.03
84947;BME280;75241;51.692;5.196;2024-03-02T01:46:52;99983.59;;;6.09;81.87
84947;BME280;75241;51.692;5.196;2024-03-02T01:49:17;99990.63;;;6.07;82.02
84947;BME280;75241;51.692;5.196;2024-03-02T01:51:44;99993.22;;;6.07;81.88
84947;BME280;75241;51.692;5.196;2024-03-02T01:54:09;99988.00;;;6.07;81.82
84947;BME280;75241;51.692;5.196;2024-03-02T01:56:35;99993.31;;;6.06;81.89
84947;BME280;75241;51.692;5.196;2024-03-02T01:59:01;99996.81;;;6.05;82.06
84947;BME280;75241;51.692;5.196;2024-03-02T02:01:26;99988.22;;;6.03;82.06
84947;BME280;75241;51.692;5.196;2024-03-02T02:03:52;99989.13;;;6.02;82.13
84947;BME280;75241;51.692;5.196;2024-03-02T02:06:17;99981.41;;;6.00;82.41
84947;BME280;75241;51.692;5.196;2024-03-02T02:08:43;99977.19;;;5.97;82.42
84947;BME280;75241;51.692;5.196;2024-03-02T02:11:08;99985.75;;;6.00;82.40
84947;BME280;75241;51.692;5.196;2024-03-02T02:13:34;99978.09;;;5.96;82.62
84947;BME280;75241;51.692;5.196;2024-03-02T02:16:06;99987.72;;;5.94;82.86
84947;BME280;75241;51.692;5.196;2024-03-02T02:18:32;99981.75;;;5.92;82.85
84947;BME280;75241;51.692;5.196;2024-03-02T02:20:58;99975.75;;;5.90;82.97
84947;BME280;75241;51.692;5.196;2024-03-02T02:23:23;99980.97;;;5.90;82.94
84947;BME280;75241;51.692;5.196;2024-03-02T02:25:48;99975.88;;;5.87;82.79
84947;BME280;75241;51.692;5.196;2024-03-02T02:28:14;99976.75;;;5.88;82.55
84947;BME280;75241;51.692;5.196;2024-03-02T02:30:39;99983.78;;;5.86;82.73
84947;BME280;75241;51.692;5.196;2024-03-02T02:33:05;99986.47;;;5.84;82.54
84947;BME280;75241;51.692;5.196;2024-03-02T02:35:30;99975.19;;;5.84;82.71
84947;BME280;75241;51.692;5.196;2024-03-02T02:37:56;99973.50;;;5.82;82.79
84947;BME280;75241;51.692;5.196;2024-03-02T02:40:23;99980.53;;;5.80;82.53
84947;BME280;75241;51.692;5.196;2024-03-02T02:42:49;99964.13;;;5.78;82.63
84947;BME280;75241;51.692;5.196;2024-03-02T02:45:15;99970.34;;;5.76;82.73
84947;BME280;75241;51.692;5.196;2024-03-02T02:47:41;99965.22;;;5.74;82.62
84947;BME280;75241;51.692;5.196;2024-03-02T02:50:07;99965.22;;;5.74;82.62
84947;BME280;75241;51.692;5.196;2024-03-02T02:52:34;99966.03;;;5.75;82.72
84947;BME280;75241;51.692;5.196;2024-03-02T02:55:03;99956.41;;;5.77;82.79
84947;BME280;75241;51.692;5.196;2024-03-02T02:57:28;99960.69;;;5.78;82.45
84947;BME280;75241;51.692;5.196;2024-03-02T02:59:56;99970.97;;;5.81;82.39
84947;BME280;75241;51.692;5.196;2024-03-02T03:02:21;99971.81;;;5.81;82.37
84947;BME280;75241;51.692;5.196;2024-03-02T03:04:47;99966.59;;;5.81;82.13
84947;BME280;75241;51.692;5.196;2024-03-02T03:07:12;99971.88;;;5.80;82.42
84947;BME280;75241;51.692;5.196;2024-03-02T03:09:38;99968.38;;;5.81;82.41
84947;BME280;75241;51.692;5.196;2024-03-02T03:12:06;99973.84;;;5.75;82.08
84947;BME280;75241;51.692;5.196;2024-03-02T03:14:31;99968.84;;;5.70;82.37
84947;BME280;75241;51.692;5.196;2024-03-02T03:16:57;99974.13;;;5.69;82.20
84947;BME280;75241;51.692;5.196;2024-03-02T03:19:22;99967.38;;;5.64;82.13
84947;BME280;75241;51.692;5.196;2024-03-02T03:21:48;99972.66;;;5.63;82.16
84947;BME280;75241;51.692;5.196;2024-03-02T03:24:13;99977.00;;;5.62;82.18
84947;BME280;75241;51.692;5.196;2024-03-02T03:26:38;99976.97;;;5.64;82.29
84947;BME280;75241;51.692;5.196;2024-03-02T03:29:04;99983.97;;;5.62;82.48
84947;BME280;75241;51.692;5.196;2024-03-02T03:31:29;99981.28;;;5.63;82.57
84947;BME280;75241;51.692;5.196;2024-03-02T03:33:55;99979.47;;;5.65;82.52
84947;BME280;75241;51.692;5.196;2024-03-02T03:36:20;99986.41;;;5.65;82.28
84947;BME280;75241;51.692;5.196;2024-03-02T03:38:45;99980.31;;;5.66;82.37
84947;BME280;75241;51.692;5.196;2024-03-02T03:41:11;99996.78;;;5.66;82.25
84947;BME280;75241;51.692;5.196;2024-03-02T03:43:36;99988.97;;;5.66;82.09
84947;BME280;75241;51.692;5.196;2024-03-02T03:46:02;99995.88;;;5.68;82.07
84947;BME280;75241;51.692;5.196;2024-03-02T03:48:28;99988.09;;;5.66;81.94
84947;BME280;75241;51.692;5.196;2024-03-02T03:50:58;100001.97;;;5.66;81.81
84947;BME280;75241;51.692;5.196;2024-03-02T03:53:24;100002.97;;;5.64;81.63
84947;BME280;75241;51.692;5.196;2024-03-02T03:55:49;100004.84;;;5.60;81.67
84947;BME280;75241;51.692;5.196;2024-03-02T03:58:15;100003.31;;;5.56;81.54
84947;BME280;75241;51.692;5.196;2024-03-02T04:00:42;99999.84;;;5.56;81.72
84947;BME280;75241;51.692;5.196;2024-03-02T04:03:08;100004.13;;;5.57;81.65
84947;BME280;75241;51.692;5.196;2024-03-02T04:05:33;100009.22;;;5.60;81.58
84947;BME280;75241;51.692;5.196;2024-03-02T04:07:58;100003.03;;;5.62;81.46
84947;BME280;75241;51.692;5.196;2024-03-02T04:10:25;100003.72;;;5.66;81.36
84947;BME280;75241;51.692;5.196;2024-03-02T04:12:50;99995.88;;;5.68;81.11
84947;BME280;75241;51.692;5.196;2024-03-02T04:15:16;100000.94;;;5.71;81.00
84947;BME280;75241;51.692;5.196;2024-03-02T04:17:43;99997.41;;;5.72;80.88
84947;BME280;75241;51.692;5.196;2024-03-02T04:20:09;99999.09;;;5.73;80.75
84947;BME280;75241;51.692;5.196;2024-03-02T04:22:34;99998.13;;;5.75;80.50
84947;BME280;75241;51.692;5.196;2024-03-02T04:25:01;99995.53;;;5.75;80.31
84947;BME280;75241;51.692;5.196;2024-03-02T04:27:27;99998.13;;;5.75;80.24
84947;BME280;75241;51.692;5.196;2024-03-02T04:29:52;99999.09;;;5.73;80.10
84947;BME280;75241;51.692;5.196;2024-03-02T04:32:18;99999.16;;;5.71;79.94
84947;BME280;75241;51.692;5.196;2024-03-02T04:34:44;100003.53;;;5.71;79.93
84947;BME280;75241;51.692;5.196;2024-03-02T04:37:11;99998.38;;;5.69;79.65
84947;BME280;75241;51.692;5.196;2024-03-02T04:39:37;100009.66;;;5.70;79.77
84947;BME280;75241;51.692;5.196;2024-03-02T04:42:03;100012.38;;;5.66;79.62
84947;BME280;75241;51.692;5.196;2024-03-02T04:44:28;100015.03;;;5.65;79.63
84947;BME280;75241;51.692;5.196;2024-03-02T04:46:54;100018.56;;;5.64;79.68
84947;BME280;75241;51.692;5.196;2024-03-02T04:49:19;100013.44;;;5.62;79.67
84947;BME280;75241;51.692;5.196;2024-03-02T04:51:44;100017.84;;;5.60;79.60
84947;BME280;75241;51.692;5.196;2024-03-02T04:54:10;100012.03;;;5.55;79.50
84947;BME280;75241;51.692;5.196;2024-03-02T04:56:35;100020.78;;;5.53;79.48
84947;BME280;75241;51.692;5.196;2024-03-02T04:59:14;100021.84;;;5.48;79.39
84947;BME280;75241;51.692;5.196;2024-03-02T05:04:42;100030.88;;;5.40;79.40
84947;BME280;75241;51.692;5.196;2024-03-02T05:07:08;100029.25;;;5.37;79.40
84947;BME280;75241;51.692;5.196;2024-03-02T05:09:33;100031.84;;;5.37;79.45
84947;BME280;75241;51.692;5.196;2024-03-02T05:11:59;100032.81;;;5.34;79.46
84947;BME280;75241;51.692;5.196;2024-03-02T05:14:40;100039.81;;;5.34;79.21
84947;BME280;75241;51.692;5.196;2024-03-02T05:17:06;100036.22;;;5.36;79.33
84947;BME280;75241;51.692;5.196;2024-03-02T05:19:31;100031.91;;;5.35;79.27
84947;BME280;75241;51.692;5.196;2024-03-02T05:21:57;100028.50;;;5.35;79.36
84947;BME280;75241;51.692;5.196;2024-03-02T05:24:22;100025.94;;;5.33;79.12
84947;BME280;75241;51.692;5.196;2024-03-02T05:26:47;100025.16;;;5.31;78.94
84947;BME280;75241;51.692;5.196;2024-03-02T05:29:13;100039.91;;;5.31;79.06
84947;BME280;75241;51.692;5.196;2024-03-02T05:31:38;100039.25;;;5.26;79.02
84947;BME280;75241;51.692;5.196;2024-03-02T05:34:04;100050.75;;;5.20;79.13
84947;BME280;75241;51.692;5.196;2024-03-02T05:36:30;100047.53;;;5.15;79.24
84947;BME280;75241;51.692;5.196;2024-03-02T05:38:57;100051.19;;;5.09;79.29
84947;BME280;75241;51.692;5.196;2024-03-02T05:41:22;100052.25;;;5.05;79.58
84947;BME280;75241;51.692;5.196;2024-03-02T05:43:47;100054.78;;;5.07;79.75
84947;BME280;75241;51.692;5.196;2024-03-02T05:46:13;100059.00;;;5.09;79.61
84947;BME280;75241;51.692;5.196;2024-03-02T05:48:38;100056.28;;;5.12;79.71
84947;BME280;75241;51.692;5.196;2024-03-02T05:51:04;100056.22;;;5.14;79.75
84947;BME280;75241;51.692;5.196;2024-03-02T05:53:29;100062.25;;;5.14;79.63
84947;BME280;75241;51.692;5.196;2024-03-02T05:55:55;100063.97;;;5.15;79.79
84947;BME280;75241;51.692;5.196;2024-03-02T05:58:23;100073.38;;;5.18;79.61
84947;BME280;75241;51.692;5.196;2024-03-02T06:01:12;100074.13;;;5.22;79.50
84947;BME280;75241;51.692;5.196;2024-03-02T06:03:38;100061.13;;;5.22;79.66
84947;BME280;75241;51.692;5.196;2024-03-02T06:06:03;100070.56;;;5.23;79.48
84947;BME280;75241;51.692;5.196;2024-03-02T06:08:29;100067.06;;;5.24;79.39
84947;BME280;75241;51.692;5.196;2024-03-02T06:10:54;100069.66;;;5.24;79.37
84947;BME280;75241;51.692;5.196;2024-03-02T06:13:21;100073.06;;;5.26;79.19
84947;BME280;75241;51.692;5.196;2024-03-02T06:15:46;100067.94;;;5.24;79.24
84947;BME280;75241;51.692;5.196;2024-03-02T06:18:12;100068.72;;;5.26;79.32
84947;BME280;75241;51.692;5.196;2024-03-02T06:20:37;100077.34;;;5.27;79.18
84947;BME280;75241;51.692;5.196;2024-03-02T06:23:04;100077.31;;;5.28;79.20
84947;BME280;75241;51.692;5.196;2024-03-02T06:25:29;100076.41;;;5.29;79.16
84947;BME280;75241;51.692;5.196;2024-03-02T06:27:55;100077.22;;;5.30;79.06
84947;BME280;75241;51.692;5.196;2024-03-02T06:30:20;100078.06;;;5.30;78.95
84947;BME280;75241;51.692;5.196;2024-03-02T06:32:46;100075.41;;;5.32;78.96
84947;BME280;75241;51.692;5.196;2024-03-02T06:35:11;100076.31;;;5.31;79.00
84947;BME280;75241;51.692;5.196;2024-03-02T06:37:38;100080.72;;;5.29;78.99
84947;BME280;75241;51.692;5.196;2024-03-02T06:40:05;100077.44;;;5.25;78.73
84947;BME280;75241;51.692;5.196;2024-03-02T06:42:33;100085.34;;;5.22;78.71
84947;BME280;75241;51.692;5.196;2024-03-02T06:44:59;100094.13;;;5.19;78.70
84947;BME280;75241;51.692;5.196;2024-03-02T06:47:24;100089.88;;;5.17;78.72
84947;BME280;75241;51.692;5.196;2024-03-02T06:49:50;100094.31;;;5.15;78.67
84947;BME280;75241;51.692;5.196;2024-03-02T06:52:16;100100.44;;;5.14;78.81
84947;BME280;75241;51.692;5.196;2024-03-02T06:54:41;100101.34;;;5.13;78.85
84947;BME280;75241;51.692;5.196;2024-03-02T06:57:06;100097.88;;;5.12;78.98
84947;BME280;75241;51.692;5.196;2024-03-02T06:59:32;100090.94;;;5.13;79.03
84947;BME280;75241;51.692;5.196;2024-03-02T07:01:59;100102.16;;;5.13;79.19
84947;BME280;75241;51.692;5.196;2024-03-02T07:04:24;100103.94;;;5.13;79.29
84947;BME280;75241;51.692;5.196;2024-03-02T07:06:49;100103.16;;;5.11;79.25
84947;BME280;75241;51.692;5.196;2024-03-02T07:09:16;100108.25;;;5.12;79.38
84947;BME280;75241;51.692;5.196;2024-03-02T07:11:41;100110.88;;;5.12;79.34
84947;BME280;75241;51.692;5.196;2024-03-02T07:14:07;100112.63;;;5.12;79.36
84947;BME280;75241;51.692;5.196;2024-03-02T07:16:32;100112.75;;;5.09;79.51
84947;BME280;75241;51.692;5.196;2024-03-02T07:18:59;100117.94;;;5.09;79.48
84947;BME280;75241;51.692;5.196;2024-03-02T07:21:27;100122.31;;;5.08;79.73
84947;BME280;75241;51.692;5.196;2024-03-02T07:23:53;100123.16;;;5.09;79.59
84947;BME280;75241;51.692;5.196;2024-03-02T07:26:18;100121.34;;;5.11;79.50
84947;BME280;75241;51.692;5.196;2024-03-02T07:28:45;100126.56;;;5.09;79.65
84947;BME280;75241;51.692;5.196;2024-03-02T07:31:11;100132.72;;;5.08;79.62
84947;BME280;75241;51.692;5.196;2024-03-02T07:33:36;100130.13;;;5.08;79.50
84947;BME280;75241;51.692;5.196;2024-03-02T07:36:03;100137.03;;;5.08;79.73
84947;BME280;75241;51.692;5.196;2024-03-02T07:38:29;100135.44;;;5.05;79.67
84947;BME280;75241;51.692;5.196;2024-03-02T07:40:55;100134.56;;;5.04;79.76
84947;BME280;75241;51.692;5.196;2024-03-02T07:43:21;100136.38;;;5.02;79.77
84947;BME280;75241;51.692;5.196;2024-03-02T07:45:47;100134.72;;;5.01;79.78
84947;BME280;75241;51.692;5.196;2024-03-02T07:48:13;100130.41;;;5.00;79.94
84947;BME280;75241;51.692;5.196;2024-03-02T07:50:39;100127.84;;;4.99;79.85
84947;BME280;75241;51.692;5.196;2024-03-02T07:53:05;100141.72;;;4.99;80.03
84947;BME280;75241;51.692;5.196;2024-03-02T07:55:31;100137.41;;;4.98;79.57
84947;BME280;75241;51.692;5.196;2024-03-02T07:57:57;100147.84;;;4.97;79.80
84947;BME280;75241;51.692;5.196;2024-03-02T08:00:23;100142.66;;;4.97;80.23
84947;BME280;75241;51.692;5.196;2024-03-02T08:02:50;100149.63;;;4.96;80.23
84947;BME280;75241;51.692;5.196;2024-03-02T08:05:16;100148.66;;;4.99;80.30
84947;BME280;75241;51.692;5.196;2024-03-02T08:07:43;100144.31;;;4.99;80.20
84947;BME280;75241;51.692;5.196;2024-03-02T08:10:09;100145.94;;;5.02;80.39
84947;BME280;75241;51.692;5.196;2024-03-02T08:12:35;100142.38;;;5.04;80.45
84947;BME280;75241;51.692;5.196;2024-03-02T08:15:00;100143.13;;;5.08;80.38
84947;BME280;75241;51.692;5.196;2024-03-02T08:17:26;100146.34;;;5.13;80.38
84947;BME280;75241;51.692;5.196;2024-03-02T08:19:51;100151.31;;;5.19;80.35
84947;BME280;75241;51.692;5.196;2024-03-02T08:22:17;100142.47;;;5.24;80.13
84947;BME280;75241;51.692;5.196;2024-03-02T08:24:43;100140.53;;;5.29;80.20
84947;BME280;75241;51.692;5.196;2024-03-02T08:27:08;100142.13;;;5.33;79.91
84947;BME280;75241;51.692;5.196;2024-03-02T08:29:34;100139.31;;;5.38;79.90
84947;BME280;75241;51.692;5.196;2024-03-02T08:32:00;100143.41;;;5.43;79.68
84947;BME280;75241;51.692;5.196;2024-03-02T08:34:25;100130.09;;;5.51;79.39
84947;BME280;75241;51.692;5.196;2024-03-02T08:36:51;100132.44;;;5.57;78.96
84947;BME280;75241;51.692;5.196;2024-03-02T08:39:17;100127.75;;;5.65;78.78
84947;BME280;75241;51.692;5.196;2024-03-02T08:41:44;100134.47;;;5.71;78.46
84947;BME280;75241;51.692;5.196;2024-03-02T08:44:09;100129.91;;;5.76;78.08
84947;BME280;75241;51.692;5.196;2024-03-02T08:46:35;100136.53;;;5.84;77.71
84947;BME280;75241;51.692;5.196;2024-03-02T08:49:01;100140.50;;;5.92;77.07
84947;BME280;75241;51.692;5.196;2024-03-02T08:51:27;100149.78;;;5.98;76.90
84947;BME280;75241;51.692;5.196;2024-03-02T08:53:52;100154.00;;;6.02;77.09
84947;BME280;75241;51.692;5.196;2024-03-02T08:56:17;100152.03;;;6.07;77.03
84947;BME280;75241;51.692;5.196;2024-03-02T08:58:43;100144.72;;;6.16;76.57
84947;BME280;75241;51.692;5.196;2024-03-02T09:01:12;100141.84;;;6.22;76.07
84947;BME280;75241;51.692;5.196;2024-03-02T09:03:38;100150.97;;;6.32;75.81
84947;BME280;75241;51.692;5.196;2024-03-02T09:06:03;100154.06;;;6.40;75.42
84947;BME280;75241;51.692;5.196;2024-03-02T09:08:29;100154.53;;;6.49;75.04
84947;BME280;75241;51.692;5.196;2024-03-02T09:10:55;100153.34;;;6.56;74.95
84947;BME280;75241;51.692;5.196;2024-03-02T09:13:21;100147.84;;;6.62;74.57
84947;BME280;75241;51.692;5.196;2024-03-02T09:15:47;100149.28;;;6.69;74.40
84947;BME280;75241;51.692;5.196;2024-03-02T09:18:13;100156.78;;;6.76;73.79
84947;BME280;75241;51.692;5.196;2024-03-02T09:20:38;100152.91;;;6.84;73.54
84947;BME280;75241;51.692;5.196;2024-03-02T09:23:04;100157.75;;;6.92;72.75
84947;BME280;75241;51.692;5.196;2024-03-02T09:25:29;100160.88;;;7.00;72.32
84947;BME280;75241;51.692;5.196;2024-03-02T09:27:55;100160.50;;;7.08;72.31
84947;BME280;75241;51.692;5.196;2024-03-02T09:30:20;100159.22;;;7.17;72.01
84947;BME280;75241;51.692;5.196;2024-03-02T09:32:45;100156.22;;;7.25;71.90
84947;BME280;75241;51.692;5.196;2024-03-02T09:35:11;100148.94;;;7.31;71.22
84947;BME280;75241;51.692;5.196;2024-03-02T09:37:37;100143.34;;;7.39;70.05
84947;BME280;75241;51.692;5.196;2024-03-02T09:40:03;100145.75;;;7.44;69.44
84947;BME280;75241;51.692;5.196;2024-03-02T09:42:29;100149.81;;;7.49;68.81
84947;BME280;75241;51.692;5.196;2024-03-02T09:44:55;100148.56;;;7.57;68.54
84947;BME280;75241;51.692;5.196;2024-03-02T09:47:25;100154.41;;;7.62;68.13
84947;BME280;75241;51.692;5.196;2024-03-02T09:49:50;100156.72;;;7.68;68.19
84947;BME280;75241;51.692;5.196;2024-03-02T09:52:16;100147.72;;;7.74;67.99
84947;BME280;75241;51.692;5.196;2024-03-02T09:54:41;100143.78;;;7.83;67.70
84947;BME280;75241;51.692;5.196;2024-03-02T09:57:07;100147.84;;;7.88;68.09
84947;BME280;75241;51.692;5.196;2024-03-02T09:59:32;100149.34;;;7.94;68.33
84947;BME280;75241;51.692;5.196;2024-03-02T10:02:02;100149.78;;;8.02;67.91
84947;BME280;75241;51.692;5.196;2024-03-02T10:04:31;100149.38;;;8.10;67.66
84947;BME280;75241;51.692;5.196;2024-03-02T10:07:17;100155.03;;;8.18;66.49
84947;BME280;75241;51.692;5.196;2024-03-02T10:09:47;100156.56;;;8.22;67.10
84947;BME280;75241;51.692;5.196;2024-03-02T10:12:17;100157.09;;;8.29;66.85
84947;BME280;75241;51.692;5.196;2024-03-02T10:14:43;100150.69;;;8.35;66.29
84947;BME280;75241;51.692;5.196;2024-03-02T10:17:10;100148.69;;;8.40;65.06
84947;BME280;75241;51.692;5.196;2024-03-02T10:19:37;100140.50;;;8.46;65.31
84947;BME280;75241;51.692;5.196;2024-03-02T10:22:07;100141.97;;;8.52;65.42
84947;BME280;75241;51.692;5.196;2024-03-02T10:24:40;100129.66;;;8.54;65.47
84947;BME280;75241;51.692;5.196;2024-03-02T10:27:27;100125.03;;;8.59;65.74
84947;BME280;75241;51.692;5.196;2024-03-02T10:29:53;100115.00;;;8.67;65.81
84947;BME280;75241;51.692;5.196;2024-03-02T10:32:22;100118.97;;;8.75;64.77
84947;BME280;75241;51.692;5.196;2024-03-02T10:34:47;100127.31;;;8.81;64.25
84947;BME280;75241;51.692;5.196;2024-03-02T10:37:13;100118.19;;;8.88;64.16
84947;BME280;75241;51.692;5.196;2024-03-02T10:39:40;100122.31;;;8.93;63.22
84947;BME280;75241;51.692;5.196;2024-03-02T10:42:06;100121.97;;;8.99;63.38
84947;BME280;75241;51.692;5.196;2024-03-02T10:44:32;100121.53;;;9.07;63.93
84947;BME280;75241;51.692;5.196;2024-03-02T10:47:04;100122.13;;;9.12;63.14
84947;BME280;75241;51.692;5.196;2024-03-02T10:49:32;100127.19;;;9.15;62.81
84947;BME280;75241;51.692;5.196;2024-03-02T10:51:58;100121.69;;;9.20;62.59
84947;BME280;75241;51.692;5.196;2024-03-02T10:54:24;100116.84;;;9.28;62.83
84947;BME280;75241;51.692;5.196;2024-03-02T10:56:59;100122.50;;;9.36;62.90
84947;BME280;75241;51.692;5.196;2024-03-02T10:59:35;100116.13;;;9.40;62.21
84947;BME280;75241;51.692;5.196;2024-03-02T11:02:03;100116.06;;;9.42;61.49
84947;BME280;75241;51.692;5.196;2024-03-02T11:04:30;100115.19;;;9.41;61.46
84947;BME280;75241;51.692;5.196;2024-03-02T11:07:13;100113.50;;;9.40;60.16
84947;BME280;75241;51.692;5.196;2024-03-02T11:09:52;100114.09;;;9.45;60.76
84947;BME280;75241;51.692;5.196;2024-03-02T11:12:28;100107.59;;;9.53;60.70
84947;BME280;75241;51.692;5.196;2024-03-02T11:14:55;100110.59;;;9.61;59.79
84947;BME280;75241;51.692;5.196;2024-03-02T11:17:21;100103.31;;;9.66;59.53
84947;BME280;75241;51.692;5.196;2024-03-02T11:19:47;100104.72;;;9.72;60.00
84947;BME280;75241;51.692;5.196;2024-03-02T11:22:13;100112.28;;;9.76;60.07
84947;BME280;75241;51.692;5.196;2024-03-02T11:24:47;100109.41;;;9.81;59.13
84947;BME280;75241;51.692;5.196;2024-03-02T11:27:13;100109.28;;;9.83;58.00
84947;BME280;75241;51.692;5.196;2024-03-02T11:32:21;100108.94;;;9.89;59.41
84947;BME280;75241;51.692;5.196;2024-03-02T11:34:49;100104.16;;;9.95;58.88
84947;BME280;75241;51.692;5.196;2024-03-02T11:37:17;100097.81;;;10.00;58.72
84947;BME280;75241;51.692;5.196;2024-03-02T11:39:46;100098.56;;;10.02;58.27
84947;BME280;75241;51.692;5.196;2024-03-02T11:42:13;100105.38;;;10.04;58.00
84947;BME280;75241;51.692;5.196;2024-03-02T11:44:42;100097.13;;;10.10;57.95
84947;BME280;75241;51.692;5.196;2024-03-02T11:47:10;100097.72;;;10.16;57.81
84947;BME280;75241;51.692;5.196;2024-03-02T11:49:46;100083.66;;;10.17;57.11
84947;BME280;75241;51.692;5.196;2024-03-02T11:52:14;100087.88;;;10.19;57.28
84947;BME280;75241;51.692;5.196;2024-03-02T11:54:43;100086.47;;;10.28;57.85
84947;BME280;75241;51.692;5.196;2024-03-02T11:57:18;100079.53;;;10.42;56.47
84947;BME280;75241;51.692;5.196;2024-03-02T11:59:44;100082.63;;;10.48;56.63
84947;BME280;75241;51.692;5.196;2024-03-02T12:02:20;100074.38;;;10.54;56.40
84947;BME280;75241;51.692;5.196;2024-03-02T12:04:47;100067.16;;;10.58;55.98
84947;BME280;75241;51.692;5.196;2024-03-02T12:07:22;100073.59;;;10.67;56.63
84947;BME280;75241;51.692;5.196;2024-03-02T12:09:49;100067.94;;;10.73;56.24
84947;BME280;75241;51.692;5.196;2024-03-02T12:12:24;100059.50;;;10.82;56.51
84947;BME280;75241;51.692;5.196;2024-03-02T12:14:53;100059.06;;;10.89;55.91
84947;BME280;75241;51.692;5.196;2024-03-02T12:17:22;100056.38;;;10.90;55.83
84947;BME280;75241;51.692;5.196;2024-03-02T12:19:48;100049.44;;;10.89;55.85
84947;BME280;75241;51.692;5.196;2024-03-02T12:22:14;100058.06;;;10.91;56.10
84947;BME280;75241;51.692;5.196;2024-03-02T12:24:41;100041.16;;;10.95;56.39
84947;BME280;75241;51.692;5.196;2024-03-02T12:27:07;100037.81;;;11.06;56.69
84947;BME280;75241;51.692;5.196;2024-03-02T12:29:32;100030.19;;;11.16;56.11
84947;BME280;75241;51.692;5.196;2024-03-02T12:31:58;100026.84;;;11.27;55.32
84947;BME280;75241;51.692;5.196;2024-03-02T12:34:24;100023.69;;;11.35;55.04
84947;BME280;75241;51.692;5.196;2024-03-02T12:36:50;100028.84;;;11.49;54.76
84947;BME280;75241;51.692;5.196;2024-03-02T12:39:18;100022.75;;;11.61;54.78
84947;BME280;75241;51.692;5.196;2024-03-02T12:41:45;100016.84;;;11.71;54.23
84947;BME280;75241;51.692;5.196;2024-03-02T12:44:11;100022.19;;;11.82;54.05
84947;BME280;75241;51.692;5.196;2024-03-02T12:46:36;100014.19;;;11.97;53.88
84947;BME280;75241;51.692;5.196;2024-03-02T12:49:10;100000.22;;;12.09;52.79
84947;BME280;75241;51.692;5.196;2024-03-02T12:51:37;100002.81;;;12.22;53.16
84947;BME280;75241;51.692;5.196;2024-03-02T12:54:02;100004.34;;;12.37;53.01
84947;BME280;75241;51.692;5.196;2024-03-02T12:56:29;100002.75;;;12.59;53.48
84947;BME280;75241;51.692;5.196;2024-03-02T12:58:55;99998.94;;;12.88;53.30
84947;BME280;75241;51.692;5.196;2024-03-02T13:01:20;99997.31;;;13.09;51.78
84947;BME280;75241;51.692;5.196;2024-03-02T13:03:49;99995.91;;;13.28;51.61
84947;BME280;75241;51.692;5.196;2024-03-02T13:06:16;99994.88;;;13.42;51.10
84947;BME280;75241;51.692;5.196;2024-03-02T13:08:42;99994.53;;;13.46;50.35